Time;durP1;ratioP1;P1;durP2;ratioP2;P2;SDS_P1;SDS_P2;PMS_P1;PMS_P2;Temp;Humidity;BMP_temperature;BMP_pressure;BME280_temperature;BME280_humidity;BME280_pressure;Samples;Min_cycle;Max_cycle;Signal;HPM_P1;HPM_P2
2022/11/27 00:01:07;;;;;;;22.88;10.38;;;;;;;4.24;100.00;161675.72;5009193;28;20230;-63
2022/11/27 00:03:32;;;;;;;21.48;11.15;;;;;;;4.24;100.00;161677.09;5010971;28;20034;-66
2022/11/27 00:05:58;;;;;;;15.13;9.93;;;;;;;4.28;100.00;161686.50;5008903;28;20091;-65
2022/11/27 00:08:24;;;;;;;17.95;11.10;;;;;;;4.27;100.00;161685.13;5010953;28;20025;-65
2022/11/27 00:10:49;;;;;;;19.88;10.07;;;;;;;4.30;100.00;161691.84;5009731;28;20497;-65
2022/11/27 00:13:15;;;;;;;17.27;9.25;;;;;;;4.31;100.00;161694.53;5010418;28;20537;-65
2022/11/27 00:15:40;;;;;;;20.98;11.02;;;;;;;4.29;100.00;161689.16;5009672;28;20235;-65
2022/11/27 00:18:05;;;;;;;12.20;9.15;;;;;;;4.28;100.00;161686.50;5010934;28;20029;-65
2022/11/27 00:20:31;;;;;;;28.00;8.70;;;;;;;4.24;100.00;161675.72;5010664;28;20046;-65
2022/11/27 00:22:56;;;;;;;15.77;9.15;;;;;;;4.21;100.00;161667.63;5014230;28;20025;-65
2022/11/27 00:25:22;;;;;;;24.52;9.43;;;;;;;4.33;100.00;161698.56;5013701;28;20026;-65
2022/11/27 00:27:47;;;;;;;20.63;9.63;;;;;;;4.37;100.00;161710.66;5014456;28;20029;-65
2022/11/27 00:30:12;;;;;;;26.00;10.43;;;;;;;4.46;100.00;161733.56;5013370;28;20447;-65
2022/11/27 00:32:38;;;;;;;15.77;8.52;;;;;;;4.41;100.00;161721.44;5014741;28;20026;-65
2022/11/27 00:35:03;;;;;;;18.77;8.10;;;;;;;4.40;100.00;161718.75;5014344;28;20453;-65
2022/11/27 00:37:29;;;;;;;21.23;9.65;;;;;;;4.37;100.00;161710.66;5013331;28;20046;-65
2022/11/27 00:39:54;;;;;;;21.02;9.85;;;;;;;4.36;100.00;161707.97;5014373;28;20029;-65
2022/11/27 00:42:19;;;;;;;22.73;10.07;;;;;;;4.34;100.00;161702.63;5012712;28;20378;-65
2022/11/27 00:44:45;;;;;;;25.83;10.60;;;;;;;4.35;100.00;161705.31;5014371;28;20081;-65
2022/11/27 00:47:10;;;;;;;21.52;9.00;;;;;;;4.45;100.00;161732.19;5013372;28;20076;-65
2022/11/27 00:49:36;;;;;;;15.73;9.10;;;;;;;4.48;100.00;161737.56;5014401;28;20022;-65
2022/11/27 00:52:01;;;;;;;25.45;8.68;;;;;;;4.44;100.00;161729.47;5012441;28;20044;-65
2022/11/27 00:54:26;;;;;;;16.70;9.65;;;;;;;4.39;100.00;161716.06;5014692;28;20072;-65
2022/11/27 00:56:52;;;;;;;20.30;9.00;;;;;;;4.42;100.00;161724.13;5012089;28;20061;-65
2022/11/27 00:59:18;;;;;;;16.73;8.35;;;;;;;4.47;100.00;161734.88;5009785;28;20026;-64
2022/11/27 01:01:43;;;;;;;28.60;8.88;;;;;;;4.52;100.00;161748.31;5010525;28;20041;-65
2022/11/27 01:04:12;;;;;;;51.47;9.63;;;;;;;4.53;100.00;161751.00;5013868;28;20026;-65
2022/11/27 01:06:38;;;;;;;14.50;8.25;;;;;;;4.54;100.00;161753.69;5013076;28;20092;-65
2022/11/27 01:09:04;;;;;;;12.57;7.45;;;;;;;4.54;100.00;161753.69;5014085;28;20822;-65
2022/11/27 01:11:32;;;;;;;18.98;8.52;;;;;;;4.52;100.00;161749.66;5012151;28;20046;-65
2022/11/27 01:14:01;;;;;;;17.98;8.93;;;;;;;4.48;100.00;161737.56;5013912;28;20076;-66
2022/11/27 01:16:28;;;;;;;13.45;8.18;;;;;;;4.43;100.00;161726.78;5012702;28;20050;-65
2022/11/27 01:18:57;;;;;;;11.82;7.75;;;;;;;4.43;100.00;161726.78;5013252;28;20025;-66
2022/11/27 01:21:24;;;;;;;19.60;9.23;;;;;;;4.41;100.00;161721.44;5012719;28;20042;-65
2022/11/27 01:23:49;;;;;;;19.20;8.07;;;;;;;4.42;100.00;161724.13;5013923;28;20422;-65
2022/11/27 01:26:17;;;;;;;15.32;8.68;;;;;;;4.35;100.00;161705.31;5043585;28;20112;-65
2022/11/27 01:28:43;;;;;;;22.83;10.57;;;;;;;4.39;100.00;161716.06;5013628;28;20030;-65
2022/11/27 01:31:18;;;;;;;18.02;8.48;;;;;;;4.41;100.00;161721.44;5011647;28;20042;-64
2022/11/27 01:33:44;;;;;;;15.45;8.65;;;;;;;4.40;100.00;161718.75;5012498;28;20038;-63
2022/11/27 01:36:11;;;;;;;27.65;9.02;;;;;;;4.41;100.00;161721.44;5012438;28;20408;-63
2022/11/27 01:38:37;;;;;;;22.92;9.45;;;;;;;4.37;100.00;161709.34;5013398;28;20497;-64
2022/11/27 01:41:26;;;;;;;17.42;9.52;;;;;;;4.35;100.00;161705.31;5011627;28;20079;-63
2022/11/27 01:43:55;;;;;;;24.45;7.93;;;;;;;4.34;100.00;161702.63;5013078;28;20501;-63
2022/11/27 01:46:27;;;;;;;19.10;8.55;;;;;;;4.38;100.00;161713.34;5012376;28;20100;-63
2022/11/27 01:48:58;;;;;;;15.00;7.80;;;;;;;4.34;100.00;161702.63;5012791;28;20067;-63
2022/11/27 01:51:24;;;;;;;28.15;10.77;;;;;;;4.34;100.00;161702.63;5011987;28;20595;-63
2022/11/27 01:53:52;;;;;;;9.10;6.85;;;;;;;4.35;100.00;161703.94;5012657;28;20168;-63
2022/11/27 01:56:19;;;;;;;26.83;11.85;;;;;;;4.33;100.00;161698.56;5011634;28;20049;-63
2022/11/27 01:58:45;;;;;;;19.80;8.23;;;;;;;4.30;100.00;161691.84;5013486;28;20116;-63
2022/11/27 02:01:10;;;;;;;21.42;6.85;;;;;;;4.23;100.00;161674.41;5011743;28;20092;-63
2022/11/27 02:03:36;;;;;;;20.17;8.18;;;;;;;4.17;100.00;161656.91;5012261;28;20341;-63
2022/11/27 02:06:01;;;;;;;11.82;7.20;;;;;;;4.20;100.00;161665.00;5011203;28;20030;-63
2022/11/27 02:08:26;;;;;;;15.20;9.23;;;;;;;4.18;100.00;161659.59;5013095;28;20030;-63
2022/11/27 02:11:08;;;;;;;27.35;9.68;;;;;;;4.21;100.00;161669.00;5005512;28;20037;-63
2022/11/27 02:13:42;;;;;;;22.73;9.07;;;;;;;4.24;100.00;161675.72;5012859;28;20029;-63
2022/11/27 02:16:28;;;;;;;14.75;7.60;;;;;;;4.24;100.00;161675.72;5011462;28;20045;-64
2022/11/27 02:19:37;;;;;;;17.88;9.32;;;;;;;4.19;100.00;161663.63;5012005;28;20029;-65
2022/11/27 02:22:18;;;;;;;15.35;8.52;;;;;;;4.13;100.00;161647.50;5010666;28;20072;-63
2022/11/27 02:24:54;;;;;;;17.67;8.18;;;;;;;4.11;100.00;161642.09;5013179;28;20393;-63
2022/11/27 02:27:55;;;;;;;14.63;8.48;;;;;;;4.06;100.00;161630.00;5010895;28;20408;-63
2022/11/27 02:30:20;;;;;;;13.90;8.27;;;;;;;4.07;100.00;161632.69;5012635;28;20026;-63
2022/11/27 02:32:57;;;;;;;17.08;8.95;;;;;;;4.10;100.00;161640.78;5010482;28;20060;-64
2022/11/27 02:35:29;;;;;;;17.48;8.23;;;;;;;4.07;100.00;161632.69;5013050;28;20025;-63
2022/11/27 02:38:08;;;;;;;14.02;9.93;;;;;;;4.04;100.00;161624.66;5010661;28;20105;-63
2022/11/27 02:40:43;;;;;;;23.23;8.45;;;;;;;4.03;100.00;161621.97;5012033;28;20034;-63
2022/11/27 02:43:12;;;;;;;15.82;9.23;;;;;;;4.02;100.00;161619.28;5010306;28;20054;-62
2022/11/27 02:45:42;;;;;;;19.95;8.50;;;;;;;4.01;100.00;161615.25;5012518;28;20029;-63
2022/11/27 02:48:09;;;;;;;26.10;9.00;;;;;;;4.00;100.00;161613.88;5010207;28;20441;-63
2022/11/27 02:50:38;;;;;;;25.02;8.20;;;;;;;3.98;100.00;161608.53;5012418;28;20144;-62
2022/11/27 02:53:08;;;;;;;13.45;6.85;;;;;;;3.96;100.00;161603.16;5009799;28;20493;-62
2022/11/27 02:55:37;;;;;;;30.02;8.25;;;;;;;3.98;100.00;161608.53;5011803;28;20030;-62
2022/11/27 02:58:07;;;;;;;18.38;8.63;;;;;;;3.96;100.00;161603.16;5010794;28;20050;-62
2022/11/27 03:00:34;;;;;;;15.85;6.32;;;;;;;3.95;100.00;161601.78;5011892;28;20034;-62
2022/11/27 03:03:04;;;;;;;11.32;8.07;;;;;;;3.88;100.00;161581.66;5009853;28;20429;-61
2022/11/27 03:05:34;;;;;;;31.58;9.23;;;;;;;3.87;100.00;161578.97;5012377;28;20033;-61
2022/11/27 03:08:36;;;;;;;26.90;10.93;;;;;;;3.91;100.00;161589.75;5010597;28;20038;-61
2022/11/27 03:11:05;;;;;;;13.93;6.57;;;;;;;3.88;100.00;161581.66;5010251;28;20054;-61
2022/11/27 03:13:36;;;;;;;11.98;7.15;;;;;;;3.83;100.00;161568.22;5011543;28;20038;-61
2022/11/27 03:16:30;;;;;;;8.85;6.82;;;;;;;3.89;100.00;161585.66;5010217;28;20376;-61
2022/11/27 03:19:04;;;;;;;20.75;8.10;;;;;;;3.93;100.00;161595.06;5011491;28;20022;-62
2022/11/27 03:21:36;;;;;;;18.45;6.90;;;;;;;3.91;100.00;161589.75;5010370;28;20477;-61
2022/11/27 03:24:01;;;;;;;21.67;7.97;;;;;;;3.86;100.00;161576.25;5010923;28;20036;-62
2022/11/27 03:26:27;;;;;;;14.45;6.95;;;;;;;3.88;100.00;161581.66;5010193;28;20068;-63
2022/11/27 03:28:55;;;;;;;10.95;6.05;;;;;;;3.89;100.00;161584.34;5011392;28;20028;-63
2022/11/27 03:31:22;;;;;;;11.57;6.55;;;;;;;3.87;100.00;161580.28;5010003;28;20050;-62
2022/11/27 03:33:48;;;;;;;15.80;8.38;;;;;;;3.88;100.00;161582.97;5010928;28;20102;-63
2022/11/27 03:36:16;;;;;;;10.90;6.15;;;;;;;3.87;100.00;161578.97;5010102;28;20037;-62
2022/11/27 03:38:44;;;;;;;12.65;8.00;;;;;;;3.83;100.00;161568.22;5011713;28;20481;-62
2022/11/27 03:41:37;;;;;;;21.63;7.13;;;;;;;3.91;100.00;161589.75;5009636;28;20038;-62
2022/11/27 03:44:21;;;;;;;25.77;8.90;;;;;;;3.86;100.00;161577.63;5011073;28;20050;-62
2022/11/27 03:47:07;;;;;;;12.48;6.50;;;;;;;3.92;100.00;161592.38;5009702;28;20045;-61
2022/11/27 03:50:14;;;;;;;21.17;8.68;;;;;;;3.96;100.00;161603.16;5011013;28;20212;-62
2022/11/27 03:52:51;;;;;;;13.07;7.03;;;;;;;3.90;100.00;161587.03;5009868;28;20524;-61
2022/11/27 03:55:36;;;;;;;11.88;7.65;;;;;;;3.91;100.00;161589.75;5010022;28;20040;-62
2022/11/27 03:58:10;;;;;;;22.63;8.52;;;;;;;3.90;100.00;161587.03;5009526;28;20103;-61
2022/11/27 04:00:41;;;;;;;15.65;8.50;;;;;;;3.91;100.00;161591.06;5011395;28;20030;-62
2022/11/27 04:03:11;;;;;;;11.65;6.35;;;;;;;3.91;100.00;161591.06;5009101;28;20053;-62
2022/11/27 04:05:36;;;;;;;19.13;7.93;;;;;;;3.94;100.00;161597.78;5011253;28;20034;-61
2022/11/27 04:08:02;;;;;;;18.13;8.73;;;;;;;3.97;100.00;161605.84;5009073;28;20049;-64
2022/11/27 04:10:27;;;;;;;22.73;7.70;;;;;;;3.96;100.00;161603.16;5010626;28;20034;-64
2022/11/27 04:12:52;;;;;;;11.50;7.05;;;;;;;4.02;100.00;161619.28;5003310;28;20045;-64
2022/11/27 04:15:18;;;;;;;15.57;8.98;;;;;;;4.03;100.00;161621.97;5011476;28;20361;-64
2022/11/27 04:17:44;;;;;;;9.90;6.22;;;;;;;4.03;100.00;161621.97;5009277;28;20045;-64
2022/11/27 04:20:11;;;;;;;16.90;8.18;;;;;;;4.05;100.00;161626.00;5010985;28;20080;-64
2022/11/27 04:22:36;;;;;;;13.52;7.22;;;;;;;4.06;100.00;161630.00;5009552;28;20049;-64
2022/11/27 04:25:02;;;;;;;19.70;10.20;;;;;;;4.06;100.00;161630.00;5010236;28;20025;-64
2022/11/27 04:27:28;;;;;;;12.18;6.93;;;;;;;4.09;100.00;161638.09;5009600;28;20042;-64
2022/11/27 04:29:54;;;;;;;16.90;8.15;;;;;;;4.08;100.00;161635.41;5010478;28;20026;-64
2022/11/27 04:32:19;;;;;;;27.17;9.48;;;;;;;4.07;100.00;161632.69;5008892;28;20100;-65
2022/11/27 04:34:44;;;;;;;14.18;6.25;;;;;;;4.08;100.00;161634.06;5010747;28;20025;-65
2022/11/27 04:37:10;;;;;;;20.67;9.05;;;;;;;4.03;100.00;161620.59;5009353;28;20046;-65
2022/11/27 04:39:35;;;;;;;26.35;7.97;;;;;;;3.98;100.00;161608.53;5010670;28;20030;-65
2022/11/27 04:42:00;;;;;;;12.80;7.78;;;;;;;3.91;100.00;161591.06;5008642;28;20046;-65
2022/11/27 04:44:26;;;;;;;10.05;5.95;;;;;;;3.80;100.00;161562.84;5010724;28;20524;-65
2022/11/27 04:46:51;;;;;;;22.92;9.10;;;;;;;3.79;100.00;161560.16;5008884;28;20042;-65
2022/11/27 04:49:16;;;;;;;28.13;10.00;;;;;;;3.77;100.00;161554.75;5010381;28;20083;-65
2022/11/27 04:51:42;;;;;;;11.18;7.47;;;;;;;3.76;100.00;161550.75;5008859;28;20096;-65
2022/11/27 04:54:07;;;;;;;13.52;7.72;;;;;;;3.77;100.00;161553.44;5009589;28;20396;-65
2022/11/27 04:56:32;;;;;;;17.27;6.95;;;;;;;3.77;100.00;161553.44;5009418;28;20093;-65
2022/11/27 04:58:58;;;;;;;20.35;7.30;;;;;;;3.77;100.00;161553.44;5010540;28;20026;-64
2022/11/27 05:01:23;;;;;;;14.52;8.75;;;;;;;3.81;100.00;161565.53;5008513;28;20046;-63
2022/11/27 05:03:49;;;;;;;11.73;7.38;;;;;;;3.79;100.00;161558.81;5010555;28;20021;-63
2022/11/27 05:06:14;;;;;;;12.10;7.00;;;;;;;3.85;100.00;161573.56;5010084;28;20519;-63
2022/11/27 05:08:39;;;;;;;10.88;7.10;;;;;;;3.89;100.00;161584.34;5014131;28;20029;-63
2022/11/27 05:11:07;;;;;;;25.25;8.20;;;;;;;3.96;100.00;161603.16;5012220;28;20613;-63
2022/11/27 05:13:33;;;;;;;10.48;6.45;;;;;;;3.95;100.00;161601.78;5013905;28;20159;-63
2022/11/27 05:15:59;;;;;;;13.70;7.97;;;;;;;3.95;100.00;161600.47;5012248;28;20108;-63
2022/11/27 05:18:25;;;;;;;14.52;7.15;;;;;;;3.96;100.00;161604.47;5013781;28;20019;-64
2022/11/27 05:21:05;;;;;;;11.15;6.22;;;;;;;3.94;100.00;161597.78;5012367;28;20057;-62
2022/11/27 05:23:31;;;;;;;15.65;8.20;;;;;;;3.96;100.00;161603.16;5013444;28;20076;-62
2022/11/27 05:25:57;;;;;;;19.33;7.85;;;;;;;3.91;100.00;161589.75;5012173;28;20037;-62
2022/11/27 05:28:23;;;;;;;14.63;7.78;;;;;;;3.93;100.00;161595.06;5013892;28;20026;-62
2022/11/27 05:30:49;;;;;;;15.32;8.27;;;;;;;3.94;100.00;161597.78;5011822;28;20036;-61
2022/11/27 05:33:16;;;;;;;11.02;6.50;;;;;;;3.94;100.00;161599.16;5013636;28;20105;-61
2022/11/27 05:35:41;;;;;;;14.82;7.82;;;;;;;3.95;100.00;161600.47;5013854;28;20505;-61
2022/11/27 05:38:07;;;;;;;17.13;8.43;;;;;;;3.97;100.00;161607.19;5011848;28;20048;-61
2022/11/27 05:40:33;;;;;;;18.15;9.27;;;;;;;3.99;100.00;161611.19;5013179;28;20026;-61
2022/11/27 05:42:58;;;;;;;12.02;8.75;;;;;;;3.99;100.00;161611.19;5011567;28;20085;-61
2022/11/27 05:45:23;;;;;;;10.95;8.57;;;;;;;4.00;100.00;161612.56;5013518;28;20026;-63
2022/11/27 05:47:49;;;;;;;15.13;8.05;;;;;;;3.99;100.00;161611.19;5011860;28;20100;-63
2022/11/27 05:50:14;;;;;;;15.27;8.20;;;;;;;3.92;100.00;161592.38;5013028;28;20060;-63
2022/11/27 05:52:39;;;;;;;15.00;7.70;;;;;;;3.98;100.00;161608.53;5011655;28;20080;-62
2022/11/27 05:55:05;;;;;;;15.18;8.02;;;;;;;4.01;100.00;161615.25;5012729;28;20029;-62
2022/11/27 05:57:31;;;;;;;13.82;7.53;;;;;;;4.01;100.00;161616.59;5011928;28;20409;-63
2022/11/27 05:59:57;;;;;;;11.55;7.35;;;;;;;4.04;100.00;161624.66;5012968;28;20026;-63
2022/11/27 06:02:23;;;;;;;12.35;7.90;;;;;;;4.10;100.00;161640.78;5011622;28;20042;-63
2022/11/27 06:04:48;;;;;;;17.05;8.90;;;;;;;4.18;100.00;161659.59;5012842;28;20033;-63
2022/11/27 06:07:13;;;;;;;12.68;8.85;;;;;;;4.18;100.00;161659.59;5012013;28;20042;-63
2022/11/27 06:09:39;;;;;;;14.35;8.13;;;;;;;4.21;100.00;161667.63;5012546;28;20025;-62
2022/11/27 06:12:04;;;;;;;17.55;7.65;;;;;;;4.26;100.00;161681.13;5011289;28;20046;-61
2022/11/27 06:14:30;;;;;;;13.77;7.90;;;;;;;4.26;100.00;161682.44;5012889;28;20464;-63
2022/11/27 06:16:56;;;;;;;15.05;9.63;;;;;;;4.29;100.00;161689.16;5009771;28;20607;-64
2022/11/27 06:19:21;;;;;;;12.48;7.43;;;;;;;4.26;100.00;161682.44;5011410;28;20117;-64
2022/11/27 06:21:47;;;;;;;16.20;9.27;;;;;;;4.27;100.00;161683.81;5010927;28;20516;-63
2022/11/27 06:24:12;;;;;;;15.98;8.45;;;;;;;4.31;100.00;161694.53;5012386;28;20532;-63
2022/11/27 06:26:37;;;;;;;11.43;8.25;;;;;;;4.34;100.00;161701.25;5008182;28;20389;-63
2022/11/27 06:29:03;;;;;;;17.30;9.25;;;;;;;4.36;100.00;161707.97;5012340;28;20033;-62
2022/11/27 06:31:31;;;;;;;14.90;9.23;;;;;;;4.40;100.00;161718.75;5014368;28;20041;-63
2022/11/27 06:33:57;;;;;;;12.88;9.40;;;;;;;4.37;100.00;161710.66;5012482;28;20608;-63
2022/11/27 06:36:27;;;;;;;9.88;7.72;;;;;;;4.36;100.00;161707.97;5009569;28;20497;-63
2022/11/27 06:38:53;;;;;;;17.30;8.55;;;;;;;4.35;100.00;161703.94;5011496;28;20370;-64
2022/11/27 06:41:21;;;;;;;16.42;9.07;;;;;;;4.41;100.00;161720.06;5010384;28;20045;-63
2022/11/27 06:43:46;;;;;;;23.60;8.37;;;;;;;4.39;100.00;161716.06;5010739;28;20089;-63
2022/11/27 06:46:14;;;;;;;13.10;9.07;;;;;;;4.42;100.00;161724.13;5010091;28;20042;-63
2022/11/27 06:48:40;;;;;;;18.50;9.83;;;;;;;4.38;100.00;161713.34;5011586;28;20026;-63
2022/11/27 06:51:07;;;;;;;10.15;6.88;;;;;;;4.42;100.00;161724.13;5008702;28;20624;-63
2022/11/27 06:53:36;;;;;;;14.95;8.52;;;;;;;4.42;100.00;161724.13;5011092;28;20026;-63
2022/11/27 06:56:04;;;;;;;21.88;8.05;;;;;;;4.47;100.00;161734.88;5009599;28;20041;-62
2022/11/27 06:58:29;;;;;;;14.73;8.32;;;;;;;4.45;100.00;161732.19;5010499;28;20048;-63
2022/11/27 07:00:58;;;;;;;12.30;7.45;;;;;;;4.50;100.00;161742.97;5009471;28;20025;-63
2022/11/27 07:03:25;;;;;;;32.15;9.70;;;;;;;4.50;100.00;161742.97;5011563;28;20052;-63
2022/11/27 07:05:50;;;;;;;11.73;7.20;;;;;;;4.50;100.00;161744.28;5009568;28;20516;-62
2022/11/27 07:08:15;;;;;;;20.42;10.50;;;;;;;4.52;100.00;161748.31;5010651;28;20035;-63
2022/11/27 07:10:41;;;;;;;19.45;9.50;;;;;;;4.51;100.00;161745.59;5011011;28;20037;-63
2022/11/27 07:13:06;;;;;;;21.10;7.82;;;;;;;4.52;100.00;161748.31;5008581;28;20065;-63
2022/11/27 07:15:32;;;;;;;10.60;8.77;;;;;;;4.53;100.00;161751.00;5011348;28;20026;-63
2022/11/27 07:17:57;;;;;;;22.17;10.10;;;;;;;4.57;100.00;161761.78;5009931;28;20408;-63
2022/11/27 07:20:23;;;;;;;14.90;9.38;;;;;;;4.63;100.00;161777.91;5009806;28;20017;-62
2022/11/27 07:22:48;;;;;;;12.27;7.07;;;;;;;4.58;100.00;161765.81;5008852;28;20396;-62
2022/11/27 07:25:13;;;;;;;16.75;9.63;;;;;;;4.62;100.00;161775.22;5010776;28;20080;-62
2022/11/27 07:27:39;;;;;;;19.00;9.63;;;;;;;4.67;100.00;161788.63;5008647;28;20045;-63
2022/11/27 07:30:05;;;;;;;21.23;9.23;;;;;;;4.69;100.00;161794.03;5010120;28;20029;-62
2022/11/27 07:32:30;;;;;;;9.18;7.88;;;;;;;4.72;100.00;161802.13;5009410;28;20054;-63
2022/11/27 07:34:55;;;;;;;12.27;7.63;;;;;;;4.71;100.00;161798.06;5010270;28;20033;-63
2022/11/27 07:37:21;;;;;;;14.23;8.95;;;;;;;4.72;100.00;161800.75;5009196;28;20045;-63
2022/11/27 07:39:46;;;;;;;12.45;8.05;;;;;;;4.77;100.00;161814.19;5011308;28;20485;-60
2022/11/27 07:42:12;;;;;;;18.15;10.00;;;;;;;4.79;100.00;161818.25;5010497;28;20037;-60
2022/11/27 07:44:37;;;;;;;17.92;8.65;;;;;;;4.86;100.00;161837.06;5014558;28;20049;-61
2022/11/27 07:47:02;;;;;;;20.40;9.13;;;;;;;4.90;100.00;161847.81;5009374;28;20944;-60
2022/11/27 07:49:27;;;;;;;18.85;9.98;;;;;;;4.93;100.00;161855.91;5009294;28;21177;-61
2022/11/27 07:51:53;;;;;;;9.48;6.82;;;;;;;4.94;100.00;161858.59;5008886;28;20029;-61
2022/11/27 07:54:18;;;;;;;14.68;8.48;;;;;;;4.92;100.00;161854.53;5010604;28;20030;-61
2022/11/27 07:56:43;;;;;;;10.25;8.20;;;;;;;5.00;100.00;161874.72;5008601;28;20040;-61
2022/11/27 07:59:09;;;;;;;17.40;11.10;;;;;;;5.06;100.00;161889.53;5010710;28;20033;-61
2022/11/27 08:01:34;;;;;;;11.75;9.02;;;;;;;5.08;100.00;161896.25;5009771;28;20045;-61
2022/11/27 08:03:59;;;;;;;29.90;12.75;;;;;;;5.12;100.00;161904.28;5008872;28;20018;-61
2022/11/27 08:06:26;;;;;;;12.65;9.13;;;;;;;5.14;100.00;161909.69;5008493;28;20038;-61
2022/11/27 08:08:54;;;;;;;17.67;9.25;;;;;;;5.20;100.00;161925.81;5010059;28;20508;-62
2022/11/27 08:11:28;;;;;;;14.02;9.23;;;;;;;5.27;100.00;161944.66;5008316;28;20050;-61
2022/11/27 08:13:56;;;;;;;14.25;8.48;;;;;;;5.31;100.00;161955.44;5009700;28;20042;-62
2022/11/27 08:16:21;;;;;;;21.65;9.38;;;;;;;5.35;100.00;161966.16;5009130;28;20045;-61
2022/11/27 08:18:47;;;;;;;14.43;9.57;;;;;;;5.42;100.00;161982.31;5006228;28;20087;-61
2022/11/27 08:21:13;;;;;;;9.20;7.20;;;;;;;5.49;100.00;162001.13;5008101;28;20045;-60
2022/11/27 08:23:38;;;;;;;13.13;8.85;;;;;;;5.50;100.00;162003.81;5009406;28;20049;-60
2022/11/27 08:26:08;;;;;;;11.20;7.75;;;;;;;5.54;100.00;162014.63;5014922;28;20028;-60
2022/11/27 08:28:34;;;;;;;16.20;7.82;;;;;;;5.60;100.00;162030.75;5021327;28;20042;-60
2022/11/27 08:31:01;;;;;;;14.75;9.80;;;;;;;5.56;100.00;162019.97;5008897;28;20496;-60
2022/11/27 08:33:27;;;;;;;18.50;9.00;;;;;;;5.51;100.00;162006.53;5009480;28;20113;-60
2022/11/27 08:35:53;;;;;;;16.27;9.05;;;;;;;5.48;100.00;161998.44;5008217;28;20472;-60
2022/11/27 08:38:19;;;;;;;16.30;8.30;;;;;;;5.52;100.00;162009.22;5010121;28;20018;-60
2022/11/27 08:40:44;;;;;;;16.40;9.15;;;;;;;5.52;100.00;162010.56;5009115;28;20076;-60
2022/11/27 08:43:10;;;;;;;13.10;9.40;;;;;;;5.53;100.00;162011.94;5012362;28;20505;-60
2022/11/27 08:45:38;;;;;;;12.93;8.13;;;;;;;5.51;100.00;162006.53;5013618;28;20115;-60
2022/11/27 08:48:03;;;;;;;14.55;8.00;;;;;;;5.54;100.00;162014.63;5011042;28;20079;-60
2022/11/27 08:50:28;;;;;;;10.60;7.70;;;;;;;5.54;100.00;162015.94;5008158;28;20030;-58
2022/11/27 08:52:54;;;;;;;14.55;9.63;;;;;;;5.53;100.00;162013.25;5012066;28;20103;-60
2022/11/27 08:55:19;;;;;;;14.52;8.68;;;;;;;5.61;100.00;162032.09;5013368;28;20101;-60
2022/11/27 08:57:44;;;;;;;15.48;7.68;;;;;;;5.55;100.00;162018.66;5011517;28;20050;-60
2022/11/27 09:00:10;;;;;;;9.73;6.82;;;;;;;5.57;100.00;162022.66;5014634;28;20033;-60
2022/11/27 09:02:36;;;;;;;12.57;7.57;;;;;;;5.55;100.00;162018.66;5011143;28;20052;-60
2022/11/27 09:05:04;;;;;;;15.07;8.95;;;;;;;5.58;100.00;162025.38;5013537;28;20040;-60
2022/11/27 09:07:29;;;;;;;17.40;10.15;;;;;;;5.64;100.00;162040.19;5015894;28;20540;-60
2022/11/27 09:09:55;;;;;;;16.42;8.68;;;;;;;5.67;100.00;162049.59;5012205;28;20029;-60
2022/11/27 09:12:20;;;;;;;13.00;7.68;;;;;;;5.69;100.00;162055.00;5011525;28;20061;-61
2022/11/27 09:14:46;;;;;;;12.75;7.85;;;;;;;5.68;100.00;162052.28;5012765;28;20030;-61
2022/11/27 09:17:11;;;;;;;9.55;8.18;;;;;;;5.75;100.00;162068.44;5011627;28;20444;-62
2022/11/27 09:19:36;;;;;;;13.15;7.85;;;;;;;5.72;100.00;162063.03;5016524;28;20030;-61
2022/11/27 09:22:02;;;;;;;17.23;9.75;;;;;;;5.79;100.00;162080.53;5011615;28;20104;-60
2022/11/27 09:24:27;;;;;;;13.07;7.35;;;;;;;5.86;100.00;162099.38;5012769;28;20145;-61
2022/11/27 09:26:53;;;;;;;23.13;9.60;;;;;;;5.94;100.00;162119.53;5011246;28;20496;-61
2022/11/27 09:29:18;;;;;;;10.90;9.82;;;;;;;5.86;100.00;162098.00;5013060;28;20408;-60
2022/11/27 09:31:43;;;;;;;16.77;8.27;;;;;;;5.96;100.00;162124.94;5011156;28;20038;-60
2022/11/27 09:34:09;;;;;;;12.27;7.55;;;;;;;5.98;100.00;162130.34;5013217;28;20021;-62
2022/11/27 09:36:34;;;;;;;15.98;9.77;;;;;;;6.02;100.00;162141.13;5011665;28;20516;-61
2022/11/27 09:39:01;;;;;;;11.57;7.75;;;;;;;6.02;100.00;162141.13;5013009;28;20029;-61
2022/11/27 09:41:40;;;;;;;9.13;7.30;;;;;;;6.07;100.00;162151.94;5010886;28;20386;-61
2022/11/27 09:44:26;;;;;;;;;;;;;;;6.06;100.00;162150.56;5012831;28;20049;-60
2022/11/27 09:46:53;;;;;;;13.00;8.10;;;;;;;6.02;100.00;162141.13;5010179;28;19921;-61
2022/11/27 09:49:30;;;;;;;11.23;7.55;;;;;;;6.02;100.00;162141.13;5013070;28;20049;-60
2022/11/27 09:52:10;;;;;;;10.30;7.05;;;;;;;5.99;100.00;162133.09;5010997;28;20496;-60
2022/11/27 09:54:53;;;;;;;9.38;6.97;;;;;;;5.99;100.00;162133.09;5005429;28;20030;-60
2022/11/27 09:57:33;;;;;;;13.02;7.28;;;;;;;5.99;100.00;162131.72;5014396;28;20129;-60
2022/11/27 10:00:04;;;;;;;11.43;7.75;;;;;;;5.98;100.00;162130.34;5013768;28;20029;-60
2022/11/27 10:02:32;;;;;;;11.18;8.63;;;;;;;5.94;100.00;162119.53;5006074;28;20125;-60
2022/11/27 10:04:59;;;;;;;14.93;7.65;;;;;;;5.91;100.00;162110.13;5011629;28;20057;-60
2022/11/27 10:07:39;;;;;;;12.23;7.20;;;;;;;5.88;100.00;162103.41;5013264;28;20048;-60
2022/11/27 10:10:26;;;;;;;8.65;7.72;;;;;;;5.82;100.00;162087.25;5016426;28;20032;-60
2022/11/27 10:13:03;;;;;;;17.87;8.10;;;;;;;5.78;100.00;162076.47;5010389;28;20057;-60
2022/11/27 10:15:38;;;;;;;12.77;10.02;;;;;;;5.76;100.00;162072.44;5012543;28;20066;-60
2022/11/27 10:18:13;;;;;;;10.80;8.10;;;;;;;5.72;100.00;162061.72;5009936;28;20045;-60
2022/11/27 10:20:53;;;;;;;16.35;7.68;;;;;;;5.71;100.00;162060.34;5012101;28;20358;-60
2022/11/27 10:23:41;;;;;;;11.48;9.65;;;;;;;5.69;100.00;162053.63;5010661;28;20414;-60
2022/11/27 10:26:33;;;;;;;16.30;9.85;;;;;;;5.61;100.00;162033.47;4996030;28;20191;-60
2022/11/27 10:29:26;;;;;;;20.63;10.48;;;;;;;5.60;100.00;162030.75;5011918;28;20476;-60
2022/11/27 10:31:57;;;;;;;12.02;9.57;;;;;;;5.58;100.00;162024.03;5008291;28;20042;-60
2022/11/27 10:34:47;;;;;;;9.98;7.78;;;;;;;5.58;100.00;162025.38;5011321;28;20702;-60
2022/11/27 10:37:27;;;;;;;16.52;9.82;;;;;;;5.56;100.00;162019.97;5009806;28;20046;-60
2022/11/27 10:40:06;;;;;;;15.32;8.98;;;;;;;5.51;100.00;162006.53;5010720;28;20522;-60
2022/11/27 10:42:36;;;;;;;10.93;7.70;;;;;;;5.48;100.00;161999.81;5009891;28;20528;-60
2022/11/27 10:45:06;;;;;;;13.18;7.95;;;;;;;5.49;100.00;162001.13;5011277;28;20648;-60
2022/11/27 10:47:32;;;;;;;12.48;9.68;;;;;;;5.46;100.00;161993.09;5021601;28;20037;-60
2022/11/27 10:49:58;;;;;;;21.30;10.60;;;;;;;5.53;100.00;162011.94;5023245;28;20068;-60
2022/11/27 10:52:24;;;;;;;15.35;9.98;;;;;;;5.57;100.00;162022.66;5010392;28;20053;-60
2022/11/27 10:54:56;;;;;;;12.45;9.15;;;;;;;5.48;100.00;161999.81;5010554;28;20385;-60
2022/11/27 10:57:42;;;;;;;19.48;10.98;;;;;;;5.44;100.00;161989.03;5009834;28;20420;-60
2022/11/27 11:00:21;;;;;;;17.08;10.02;;;;;;;5.50;100.00;162003.81;5012272;28;20018;-60
2022/11/27 11:02:47;;;;;;;24.58;11.27;;;;;;;5.49;100.00;162001.13;5015091;28;20046;-60
2022/11/27 11:05:22;;;;;;;18.88;10.45;;;;;;;5.49;100.00;162001.13;5016432;28;20493;-60
2022/11/27 11:07:55;;;;;;;13.45;8.70;;;;;;;5.50;100.00;162003.81;5008384;28;20038;-60
2022/11/27 11:10:26;;;;;;;13.80;9.32;;;;;;;5.54;100.00;162015.94;5011252;28;20026;-60
2022/11/27 11:13:26;;;;;;;14.45;7.50;;;;;;;5.58;100.00;162024.03;5009252;28;20046;-60
2022/11/27 11:15:56;;;;;;;11.27;9.32;;;;;;;5.52;100.00;162009.22;5009203;28;20041;-59
2022/11/27 11:18:28;;;;;;;12.35;9.43;;;;;;;5.51;100.00;162006.53;5009744;28;20121;-60
2022/11/27 11:20:57;;;;;;;23.55;9.57;;;;;;;5.53;100.00;162011.94;5009675;28;20029;-60
2022/11/27 11:23:24;;;;;;;;;;;;;;;5.58;100.00;162024.03;5011995;28;20052;-60
2022/11/27 11:25:53;;;;;;;10.50;8.75;;;;;;;5.57;100.00;162022.66;5009180;28;19913;-59